createdAt,value
2019-01-06T00:00:11.196Z,59.80
2019-01-06T00:02:59.085Z,59.80
2019-01-06T00:05:46.833Z,59.80
2019-01-06T00:08:40.657Z,59.90
2019-01-06T00:11:28.358Z,59.80
2019-01-06T00:14:06.894Z,59.60
2019-01-06T00:16:53.501Z,59.60
2019-01-06T00:19:41.338Z,59.50
2019-01-06T00:22:27.706Z,59.50
2019-01-06T00:25:27.450Z,59.60
2019-01-06T00:28:15.142Z,59.60
2019-01-06T00:31:11.805Z,59.70
2019-01-06T00:33:58.133Z,59.90
2019-01-06T00:37:03.941Z,60.00
2019-01-06T00:39:57.634Z,60.10
2019-01-06T00:42:44.169Z,60.10
2019-01-06T00:45:40.861Z,61.70
2019-01-06T00:48:40.797Z,61.80
2019-01-06T00:51:30.913Z,61.70
2019-01-06T00:54:18.032Z,61.70
2019-01-06T00:57:11.569Z,61.70
2019-01-06T01:00:02.298Z,61.80
2019-01-06T01:02:55.779Z,62.50
2019-01-06T01:06:00.285Z,61.70
2019-01-06T01:08:59.873Z,61.70
2019-01-06T01:11:46.330Z,62.50
2019-01-06T01:14:31.068Z,61.70
2019-01-06T01:17:25.137Z,61.80
2019-01-06T01:20:12.814Z,61.90
2019-01-06T01:23:03.511Z,62.00
2019-01-06T01:25:57.017Z,62.00
2019-01-06T01:28:49.576Z,62.10
2019-01-06T01:31:36.058Z,62.20
2019-01-06T01:34:41.925Z,62.30
2019-01-06T01:37:38.781Z,62.20
2019-01-06T01:40:44.826Z,62.40
2019-01-06T01:43:27.376Z,63.50
2019-01-06T01:46:15.153Z,64.00
2019-01-06T01:49:09.173Z,63.80
2019-01-06T01:51:57.005Z,63.60
2019-01-06T01:54:53.792Z,63.50
2019-01-06T01:57:50.316Z,63.40
2019-01-06T02:00:50.141Z,63.40
2019-01-06T02:03:37.977Z,64.60
2019-01-06T02:06:30.193Z,64.90
2019-01-06T02:09:18.028Z,64.80
2019-01-06T02:12:05.714Z,64.90
2019-01-06T02:14:59.110Z,64.70
2019-01-06T02:17:45.249Z,64.60
2019-01-06T02:20:31.745Z,64.50
2019-01-06T02:23:31.492Z,64.50
2019-01-06T02:26:31.093Z,64.60
2019-01-06T02:29:18.769Z,64.30
2019-01-06T02:32:05.333Z,64.10
2019-01-06T02:34:51.601Z,64.10
2019-01-06T02:37:42.132Z,64.20
2019-01-06T02:40:28.564Z,64.00
2019-01-06T02:43:22.313Z,64.10
2019-01-06T02:46:15.705Z,64.00
2019-01-06T02:49:03.852Z,64.00
2019-01-06T02:51:54.289Z,64.00
2019-01-06T02:54:48.224Z,64.00
2019-01-06T02:57:51.195Z,63.80
2019-01-06T03:00:44.727Z,63.80
2019-01-06T03:03:31.413Z,63.80
2019-01-06T03:06:22.881Z,64.90
2019-01-06T03:09:25.809Z,64.10
2019-01-06T03:12:12.199Z,64.00
2019-01-06T03:14:58.839Z,64.00
2019-01-06T03:17:52.337Z,64.60
2019-01-06T03:20:46.157Z,63.70
2019-01-06T03:23:34.047Z,63.70
2019-01-06T03:26:20.144Z,63.80
2019-01-06T03:29:06.574Z,63.80
2019-01-06T03:32:03.118Z,63.80
2019-01-06T03:34:49.786Z,63.80
2019-01-06T03:37:46.321Z,63.80
2019-01-06T03:40:38.121Z,64.00
2019-01-06T03:43:31.912Z,63.80
2019-01-06T03:46:22.713Z,63.80
2019-01-06T03:49:12.457Z,63.80
2019-01-06T03:51:57.824Z,63.80
2019-01-06T03:54:43.812Z,63.80
2019-01-06T03:57:30.179Z,63.90
2019-01-06T04:00:32.817Z,63.80
2019-01-06T04:03:35.900Z,63.80
2019-01-06T04:06:22.224Z,63.70
2019-01-06T04:09:16.278Z,63.70
2019-01-06T04:12:02.645Z,63.50
2019-01-06T04:14:57.478Z,63.50
2019-01-06T04:17:43.637Z,63.60
2019-01-06T04:20:37.208Z,63.80
2019-01-06T04:23:36.912Z,63.80
2019-01-06T04:26:23.499Z,64.00
2019-01-06T04:29:19.993Z,64.10
2019-01-06T04:32:06.677Z,64.20
2019-01-06T04:35:00.328Z,64.50
2019-01-06T04:37:57.296Z,65.30
2019-01-06T04:40:57.026Z,64.60
2019-01-06T04:43:43.414Z,64.70
2019-01-06T04:46:29.612Z,64.80
2019-01-06T04:49:35.482Z,64.80
2019-01-06T04:52:32.038Z,64.60
2019-01-06T04:55:38.003Z,64.40
2019-01-06T04:58:41.052Z,64.50
2019-01-06T05:01:41.137Z,65.10
2019-01-06T05:04:27.540Z,64.90
2019-01-06T05:07:21.273Z,64.70
2019-01-06T05:10:07.502Z,64.50
2019-01-06T05:12:58.020Z,64.50
2019-01-06T05:15:48.624Z,64.40
2019-01-06T05:18:35.309Z,64.50
2019-01-06T05:21:23.087Z,64.60
2019-01-06T05:24:09.769Z,64.60
2019-01-06T05:26:49.363Z,64.60
2019-01-06T05:29:37.197Z,64.80
2019-01-06T05:32:30.989Z,64.90
2019-01-06T05:35:27.670Z,64.90
2019-01-06T05:38:18.121Z,64.80
2019-01-06T05:41:05.913Z,64.80
2019-01-06T05:43:54.152Z,64.70
2019-01-06T05:46:45.026Z,64.60
2019-01-06T05:49:42.141Z,64.40
2019-01-06T05:52:28.385Z,64.30
2019-01-06T05:55:21.804Z,64.10
2019-01-06T05:58:04.724Z,64.00
2019-01-06T06:01:05.926Z,63.80
2019-01-06T06:03:53.757Z,63.70
2019-01-06T06:06:39.945Z,63.10
2019-01-06T06:09:42.692Z,63.70
2019-01-06T06:12:29.028Z,63.70
2019-01-06T06:15:15.517Z,63.70
2019-01-06T06:18:18.177Z,63.80
2019-01-06T06:21:23.981Z,63.80
2019-01-06T06:24:10.338Z,63.90
2019-01-06T06:27:03.944Z,64.10
2019-01-06T06:29:51.685Z,64.30
2019-01-06T06:32:38.220Z,64.60
2019-01-06T06:35:24.273Z,64.70
2019-01-06T06:38:23.941Z,64.80
2019-01-06T06:41:07.373Z,64.60
2019-01-06T06:43:53.261Z,64.70
2019-01-06T06:46:47.648Z,64.70
2019-01-06T06:49:35.488Z,64.70
2019-01-06T06:52:26.004Z,64.50
2019-01-06T06:55:12.570Z,64.20
2019-01-06T06:58:35.240Z,64.00
2019-01-06T07:01:47.125Z,63.70
2019-01-06T07:04:40.784Z,63.20
2019-01-06T07:07:34.689Z,63.30
2019-01-06T07:10:21.098Z,63.60
2019-01-06T07:13:08.864Z,63.60
2019-01-06T07:15:57.164Z,63.40
2019-01-06T07:18:50.924Z,63.40
2019-01-06T07:21:48.481Z,63.20
2019-01-06T07:24:34.885Z,63.20
2019-01-06T07:27:22.682Z,63.20
2019-01-06T07:30:16.342Z,63.00
2019-01-06T07:33:07.041Z,62.70
2019-01-06T07:36:10.138Z,62.50
2019-01-06T07:38:56.520Z,62.30
2019-01-06T07:41:47.611Z,62.20
2019-01-06T07:44:30.198Z,62.00
2019-01-06T07:47:16.461Z,62.60
2019-01-06T07:50:10.604Z,61.40
2019-01-06T07:52:56.933Z,61.30
2019-01-06T07:55:49.960Z,61.20
2019-01-06T07:58:52.886Z,60.80
2019-01-06T08:01:32.907Z,60.70
2019-01-06T08:04:29.856Z,59.30
2019-01-06T08:07:16.258Z,59.40
2019-01-06T08:10:12.996Z,59.30
2019-01-06T08:12:59.148Z,59.00
2019-01-06T08:15:45.585Z,58.70
2019-01-06T08:18:46.944Z,58.30
2019-01-06T08:21:40.768Z,57.80
2019-01-06T08:24:40.637Z,57.30
2019-01-06T08:27:40.609Z,56.80
2019-01-06T08:30:34.020Z,56.30
2019-01-06T08:33:20.546Z,55.90
2019-01-06T08:36:06.873Z,55.70
2019-01-06T08:39:06.766Z,55.50
2019-01-06T08:42:27.445Z,55.40
2019-01-06T08:45:14.532Z,54.90
2019-01-06T08:48:14.121Z,54.80
2019-01-06T08:51:07.994Z,54.70
2019-01-06T08:53:54.305Z,54.50
2019-01-06T08:56:54.028Z,54.40
2019-01-06T08:59:53.900Z,54.20
2019-01-06T09:02:47.639Z,54.10
2019-01-06T09:05:47.265Z,54.00
2019-01-06T09:08:38.012Z,53.80
2019-01-06T09:11:32.017Z,53.80
2019-01-06T09:14:18.603Z,53.70
2019-01-06T09:17:08.453Z,53.40
2019-01-06T09:19:56.619Z,53.40
2019-01-06T09:22:44.305Z,53.30
2019-01-06T09:25:30.754Z,53.40
2019-01-06T09:28:17.184Z,53.50
2019-01-06T09:31:05.021Z,53.50
2019-01-06T09:33:56.324Z,53.40
2019-01-06T09:36:43.018Z,53.30
2019-01-06T09:39:29.076Z,53.20
2019-01-06T09:42:15.363Z,53.00
2019-01-06T09:44:56.221Z,52.70
2019-01-06T09:47:55.792Z,52.50
2019-01-06T09:50:52.270Z,52.10
2019-01-06T09:53:38.720Z,52.10
2019-01-06T09:56:24.821Z,52.00
2019-01-06T09:59:15.477Z,51.90
2019-01-06T10:02:09.541Z,51.80
2019-01-06T10:05:09.556Z,51.70
2019-01-06T10:07:59.045Z,51.80
2019-01-06T10:10:55.798Z,51.60
2019-01-06T10:13:52.821Z,51.30
2019-01-06T10:16:49.602Z,51.40
2019-01-06T10:19:36.388Z,51.60
2019-01-06T10:22:27.152Z,51.70
2019-01-06T10:25:18.153Z,51.60
2019-01-06T10:28:21.337Z,51.90
2019-01-06T10:31:15.192Z,52.50
2019-01-06T10:34:02.070Z,53.20
2019-01-06T10:36:48.377Z,53.60
2019-01-06T10:39:32.304Z,53.80
2019-01-06T10:42:38.200Z,53.90
2019-01-06T10:45:31.920Z,53.90
2019-01-06T10:48:12.520Z,54.00
2019-01-06T10:51:15.161Z,53.90
2019-01-06T10:54:02.846Z,54.00
2019-01-06T10:56:49.441Z,53.80
2019-01-06T10:59:46.008Z,53.90
2019-01-06T11:02:32.533Z,54.10
2019-01-06T11:05:26.064Z,54.20
2019-01-06T11:08:26.124Z,54.90
2019-01-06T11:11:22.851Z,55.00
2019-01-06T11:14:13.260Z,55.10
2019-01-06T11:17:07.001Z,55.30
2019-01-06T11:19:53.388Z,55.50
2019-01-06T11:22:50.510Z,55.60
2019-01-06T11:25:42.389Z,55.80
2019-01-06T11:28:30.198Z,55.80
2019-01-06T11:31:18.010Z,55.80
2019-01-06T11:34:17.968Z,55.70
2019-01-06T11:37:12.015Z,55.60
2019-01-06T11:39:58.232Z,55.80
2019-01-06T11:42:44.688Z,55.90
2019-01-06T11:45:41.782Z,56.10
2019-01-06T11:48:28.441Z,56.30
2019-01-06T11:51:18.806Z,56.60
2019-01-06T11:54:10.400Z,56.90
2019-01-06T11:57:00.757Z,57.50
2019-01-06T11:59:47.273Z,57.60
2019-01-06T12:02:28.892Z,57.80
2019-01-06T12:05:15.204Z,57.90
2019-01-06T12:07:56.473Z,57.80
2019-01-06T12:10:44.476Z,58.00
2019-01-06T12:13:45.562Z,57.80
2019-01-06T12:16:42.715Z,57.80
2019-01-06T12:19:33.909Z,57.60
2019-01-06T12:22:20.973Z,57.60
2019-01-06T12:25:07.044Z,57.70
2019-01-06T12:28:06.757Z,57.70
2019-01-06T12:30:53.253Z,57.70
2019-01-06T12:33:56.102Z,57.60
2019-01-06T12:36:55.654Z,57.40
2019-01-06T12:39:53.460Z,57.50
2019-01-06T12:42:57.331Z,57.80
2019-01-06T12:45:45.445Z,57.80
2019-01-06T12:48:51.763Z,58.10
2019-01-06T12:51:56.560Z,58.20
2019-01-06T12:54:56.765Z,58.40
2019-01-06T12:57:50.929Z,58.60
2019-01-06T13:00:37.243Z,58.70
2019-01-06T13:03:40.707Z,58.80
2019-01-06T13:06:37.434Z,58.80
2019-01-06T13:09:26.526Z,58.80
2019-01-06T13:12:13.504Z,58.90
2019-01-06T13:15:10.129Z,58.90
2019-01-06T13:18:10.132Z,58.90
2019-01-06T13:20:50.447Z,58.50
2019-01-06T13:23:32.594Z,58.30
2019-01-06T13:26:35.712Z,58.10
2019-01-06T13:29:23.692Z,58.10
2019-01-06T13:32:37.020Z,58.00
2019-01-06T13:35:31.295Z,57.80
2019-01-06T13:38:28.164Z,57.40
2019-01-06T13:41:21.683Z,57.20
2019-01-06T13:44:14.487Z,56.80
2019-01-06T13:47:02.070Z,56.60
2019-01-06T13:49:49.974Z,56.60
2019-01-06T13:52:57.587Z,56.80
2019-01-06T13:56:01.486Z,57.00
2019-01-06T13:58:50.414Z,57.00
2019-01-06T14:01:50.179Z,57.00
2019-01-06T14:04:46.118Z,56.90
2019-01-06T14:07:37.701Z,57.10
2019-01-06T14:10:25.639Z,57.40
2019-01-06T14:13:09.302Z,57.90
2019-01-06T14:15:57.172Z,58.10
2019-01-06T14:19:00.956Z,58.20
2019-01-06T14:21:57.567Z,58.30
2019-01-06T14:24:47.841Z,58.40
2019-01-06T14:27:53.370Z,58.60
2019-01-06T14:30:41.613Z,59.40
2019-01-06T14:33:29.525Z,59.50
2019-01-06T14:36:28.149Z,59.70
2019-01-06T14:39:16.066Z,59.80
2019-01-06T14:42:03.172Z,59.80
2019-01-06T14:45:09.808Z,59.90
2019-01-06T14:47:57.737Z,60.00
2019-01-06T14:50:45.401Z,60.00
2019-01-06T14:53:37.308Z,60.10
2019-01-06T14:56:24.849Z,60.30
2019-01-06T14:59:12.340Z,60.40
2019-01-06T15:02:00.573Z,60.60
2019-01-06T15:05:01.966Z,61.60
2019-01-06T15:07:44.743Z,61.10
2019-01-06T15:10:39.712Z,61.10
2019-01-06T15:13:26.409Z,61.20
2019-01-06T15:16:32.179Z,61.40
2019-01-06T15:19:23.786Z,61.60
2019-01-06T15:22:08.479Z,61.80
2019-01-06T15:25:00.705Z,61.50
2019-01-06T15:28:01.942Z,61.50
2019-01-06T15:30:55.536Z,61.50
2019-01-06T15:33:43.245Z,61.50
2019-01-06T15:36:38.181Z,61.60
2019-01-06T15:39:33.013Z,61.80
2019-01-06T15:42:19.713Z,62.10
2019-01-06T15:45:22.591Z,62.20
2019-01-06T15:48:28.833Z,62.40
2019-01-06T15:51:15.911Z,62.60
2019-01-06T15:54:02.311Z,62.90
2019-01-06T15:57:02.100Z,63.10
2019-01-06T15:59:53.757Z,63.50
2019-01-06T16:02:47.473Z,63.70
2019-01-06T16:05:34.028Z,63.90
2019-01-06T16:08:21.820Z,64.20
2019-01-06T16:11:16.161Z,64.40
2019-01-06T16:14:04.515Z,64.70
2019-01-06T16:16:58.126Z,64.70
2019-01-06T16:19:44.342Z,65.00
2019-01-06T16:22:47.154Z,65.20
2019-01-06T16:25:35.021Z,65.50
2019-01-06T16:28:39.228Z,65.60
2019-01-06T16:31:29.278Z,66.60
2019-01-06T16:34:26.088Z,65.90
2019-01-06T16:37:12.593Z,65.90
2019-01-06T16:39:58.925Z,66.00
2019-01-06T16:42:46.023Z,66.20
2019-01-06T16:45:51.858Z,66.30
2019-01-06T16:48:42.548Z,66.50
2019-01-06T16:51:32.790Z,66.50
2019-01-06T16:54:19.780Z,66.50
2019-01-06T16:57:10.361Z,66.40
2019-01-06T17:00:07.305Z,66.50
2019-01-06T17:03:01.912Z,66.60
2019-01-06T17:05:48.273Z,67.30
2019-01-06T17:08:47.029Z,66.80
2019-01-06T17:11:52.917Z,67.00
2019-01-06T17:14:34.284Z,67.00
2019-01-06T17:17:20.876Z,66.70
2019-01-06T17:20:14.952Z,67.80
2019-01-06T17:23:02.654Z,68.20
2019-01-06T17:25:56.678Z,68.10
2019-01-06T17:28:50.321Z,68.00
2019-01-06T17:31:36.821Z,67.90
2019-01-06T17:34:22.942Z,67.60
2019-01-06T17:37:25.684Z,67.40
2019-01-06T17:40:12.041Z,67.30
2019-01-06T17:42:57.685Z,67.30
2019-01-06T17:45:53.597Z,67.30
2019-01-06T17:49:00.333Z,67.60
2019-01-06T17:51:53.897Z,67.70
2019-01-06T17:54:53.856Z,67.70
2019-01-06T17:57:40.285Z,67.80
2019-01-06T18:00:28.064Z,67.90
2019-01-06T18:03:08.497Z,67.90
2019-01-06T18:05:55.016Z,67.80
2019-01-06T18:08:51.710Z,67.90
2019-01-06T18:11:45.521Z,67.90
2019-01-06T18:14:36.940Z,67.90
2019-01-06T18:17:24.925Z,68.00
2019-01-06T18:20:27.839Z,69.20
2019-01-06T18:23:15.725Z,69.40
2019-01-06T18:26:15.786Z,69.20
2019-01-06T18:29:07.159Z,69.10
2019-01-06T18:31:53.789Z,69.10
2019-01-06T18:34:47.328Z,69.00
2019-01-06T18:37:34.044Z,69.20
2019-01-06T18:40:34.121Z,69.20
2019-01-06T18:43:19.734Z,69.30
2019-01-06T18:46:07.422Z,69.30
2019-01-06T18:48:58.220Z,69.30
2019-01-06T18:51:54.581Z,69.30
2019-01-06T18:54:40.849Z,69.50
2019-01-06T18:57:40.316Z,69.40
2019-01-06T19:00:27.971Z,70.40
2019-01-06T19:03:15.746Z,70.40
2019-01-06T19:06:09.673Z,70.20
2019-01-06T19:09:15.377Z,70.00
2019-01-06T19:12:01.718Z,69.80
2019-01-06T19:14:44.865Z,69.60
2019-01-06T19:17:31.417Z,69.60
2019-01-06T19:20:32.610Z,69.50
2019-01-06T19:23:18.101Z,69.60
2019-01-06T19:26:04.925Z,69.60
2019-01-06T19:28:51.205Z,69.60
2019-01-06T19:31:38.970Z,69.60
2019-01-06T19:34:36.149Z,69.60
2019-01-06T19:37:31.873Z,69.60
2019-01-06T19:40:28.865Z,69.90
2019-01-06T19:43:25.456Z,69.70
2019-01-06T19:46:25.361Z,69.80
2019-01-06T19:49:22.811Z,69.80
2019-01-06T19:52:28.934Z,69.80
2019-01-06T19:55:13.056Z,70.00
2019-01-06T19:58:10.146Z,70.00
2019-01-06T20:01:01.096Z,69.60
2019-01-06T20:03:42.649Z,69.60
2019-01-06T20:06:25.304Z,69.20
2019-01-06T20:09:28.481Z,69.20
2019-01-06T20:12:17.427Z,69.00
2019-01-06T20:15:03.917Z,68.80
2019-01-06T20:17:50.837Z,68.60
2019-01-06T20:20:38.545Z,68.40
2019-01-06T20:23:20.380Z,68.20
2019-01-06T20:26:14.182Z,68.10
2019-01-06T20:29:00.513Z,68.20
2019-01-06T20:31:46.897Z,69.00
2019-01-06T20:34:40.537Z,68.10
2019-01-06T20:37:32.480Z,68.00
2019-01-06T20:40:32.391Z,68.00
2019-01-06T20:43:18.669Z,67.90
2019-01-06T20:46:12.230Z,67.70
2019-01-06T20:48:59.681Z,67.60
2019-01-06T20:51:50.158Z,67.60
2019-01-06T20:54:40.801Z,67.60
2019-01-06T20:57:40.813Z,67.20
2019-01-06T21:00:40.714Z,67.00
2019-01-06T21:03:34.614Z,66.90
2019-01-06T21:06:34.389Z,66.90
2019-01-06T21:09:27.897Z,66.90
2019-01-06T21:12:14.398Z,66.70
2019-01-06T21:15:00.944Z,66.70
2019-01-06T21:17:45.965Z,66.60
2019-01-06T21:20:42.726Z,66.60
2019-01-06T21:23:28.658Z,66.60
2019-01-06T21:26:22.175Z,66.50
2019-01-06T21:29:12.789Z,66.50
2019-01-06T21:32:09.488Z,66.40
2019-01-06T21:34:55.789Z,66.30
2019-01-06T21:37:58.548Z,66.30
2019-01-06T21:40:49.158Z,66.40
2019-01-06T21:43:37.029Z,66.10
2019-01-06T21:46:30.781Z,66.00
2019-01-06T21:49:17.124Z,65.80
2019-01-06T21:52:05.627Z,65.80
2019-01-06T21:54:56.256Z,65.80
2019-01-06T21:57:49.980Z,65.80
2019-01-06T22:00:36.131Z,65.80
2019-01-06T22:03:20.665Z,65.70
2019-01-06T22:06:23.302Z,65.70
2019-01-06T22:09:29.335Z,65.70
2019-01-06T22:12:22.829Z,65.70
2019-01-06T22:15:16.640Z,65.70
2019-01-06T22:18:03.040Z,65.80
2019-01-06T22:20:51.011Z,65.90
2019-01-06T22:23:54.219Z,65.90
2019-01-06T22:26:53.988Z,66.00
2019-01-06T22:29:40.618Z,66.00
2019-01-06T22:32:34.164Z,66.90
2019-01-06T22:35:31.325Z,66.00
2019-01-06T22:38:17.669Z,66.00
2019-01-06T22:41:02.280Z,65.90
2019-01-06T22:43:54.965Z,66.00
2019-01-06T22:46:42.915Z,66.00
2019-01-06T22:49:27.400Z,66.10
2019-01-06T22:52:13.781Z,66.20
2019-01-06T22:55:00.253Z,66.20
2019-01-06T22:57:59.825Z,66.80
2019-01-06T23:01:02.204Z,67.00
2019-01-06T23:03:43.288Z,66.90
2019-01-06T23:06:28.375Z,66.80
2019-01-06T23:09:14.764Z,67.70
2019-01-06T23:12:07.012Z,66.90
2019-01-06T23:14:54.788Z,67.00
2019-01-06T23:17:57.644Z,67.70
2019-01-06T23:20:48.017Z,68.00
2019-01-06T23:23:41.696Z,67.90
2019-01-06T23:26:29.534Z,67.70
2019-01-06T23:29:15.660Z,67.70
2019-01-06T23:32:18.470Z,67.80
2019-01-06T23:35:04.613Z,67.80
2019-01-06T23:38:07.517Z,68.80
2019-01-06T23:40:55.201Z,67.90
2019-01-06T23:43:41.782Z,67.90
2019-01-06T23:46:20.046Z,67.90
2019-01-06T23:49:06.653Z,67.90
2019-01-06T23:51:54.338Z,68.00
2019-01-06T23:54:44.351Z,68.10
2019-01-06T23:57:38.727Z,68.10
